Time;durP1;ratioP1;P1;durP2;ratioP2;P2;SDS_P1;SDS_P2;PMS_P1;PMS_P2;Temp;Humidity;BMP_temperature;BMP_pressure;BME280_temperature;BME280_humidity;BME280_pressure;Samples;Min_cycle;Max_cycle;Signal;HPM_P1;HPM_P2
2021/05/10 00:02:04;;;;;;;6.70;2.90;;;;;;;9.51;62.12;101533.22;5013220;28;20065;-70
2021/05/10 00:04:29;;;;;;;5.15;2.40;;;;;;;9.35;63.00;101525.41;5012776;28;20112;-69
2021/05/10 00:06:55;;;;;;;4.28;2.03;;;;;;;9.25;63.68;101517.94;5012978;28;20045;-70
2021/05/10 00:09:20;;;;;;;4.65;2.20;;;;;;;9.31;63.86;101524.31;5013170;28;20443;-69
2021/05/10 00:11:46;;;;;;;2.63;2.00;;;;;;;9.33;63.79;101521.84;5012998;28;20516;-70
2021/05/10 00:14:12;;;;;;;2.70;2.05;;;;;;;9.20;64.15;101503.06;5012736;28;20037;-69
2021/05/10 00:16:37;;;;;;;6.45;3.80;;;;;;;9.36;63.73;101517.75;5013076;28;20121;-69
2021/05/10 00:19:03;;;;;;;5.55;2.15;;;;;;;9.52;63.05;101524.69;5012901;28;20038;-70
2021/05/10 00:21:29;;;;;;;4.57;2.20;;;;;;;9.62;62.30;101508.06;5012370;28;20026;-70
2021/05/10 00:23:54;;;;;;;5.20;2.25;;;;;;;9.52;62.29;101498.91;5013179;28;20042;-73
2021/05/10 00:26:19;;;;;;;3.80;2.00;;;;;;;9.53;62.15;101525.56;5012714;28;20030;-69
2021/05/10 00:28:45;;;;;;;4.25;2.50;;;;;;;9.41;62.54;101518.03;5012663;28;20036;-70
2021/05/10 00:31:10;;;;;;;3.15;2.30;;;;;;;9.34;62.87;101526.19;5026900;28;20034;-71
2021/05/10 00:33:36;;;;;;;3.63;2.38;;;;;;;9.23;63.05;101522.97;5012791;28;20109;-71
2021/05/10 00:36:01;;;;;;;3.22;2.17;;;;;;;9.27;63.22;101526.63;5012857;28;20034;-73
2021/05/10 00:38:27;;;;;;;3.78;2.47;;;;;;;9.16;63.75;101515.66;5012525;28;20108;-70
2021/05/10 00:40:52;;;;;;;4.20;2.20;;;;;;;9.32;63.51;101523.53;5012535;28;20065;-73
2021/05/10 00:43:18;;;;;;;2.88;2.20;;;;;;;8.80;64.71;101474.94;5012386;28;20034;-69
2021/05/10 00:45:43;;;;;;;5.35;2.63;;;;;;;8.98;65.46;101500.91;5012450;28;20510;-69
2021/05/10 00:48:09;;;;;;;3.42;2.22;;;;;;;8.80;66.36;101511.00;5012261;28;20464;-70
2021/05/10 00:50:35;;;;;;;4.18;2.45;;;;;;;8.62;66.65;101502.13;5011820;28;20101;-75
2021/05/10 00:53:00;;;;;;;4.68;2.92;;;;;;;8.31;66.89;101453.88;5011904;28;20029;-69
2021/05/10 00:55:27;;;;;;;4.72;2.67;;;;;;;8.58;67.03;101503.63;5012135;28;20461;-71
2021/05/10 00:58:01;;;;;;;4.05;2.38;;;;;;;8.55;67.28;101506.91;5012077;28;20072;-68
2021/05/10 01:00:30;;;;;;;3.28;2.25;;;;;;;8.36;68.47;101510.00;5012399;28;20121;-69
2021/05/10 01:02:55;;;;;;;4.32;2.88;;;;;;;8.29;68.91;101504.34;5011729;28;20087;-72
2021/05/10 01:05:21;;;;;;;4.95;2.60;;;;;;;8.30;68.17;101494.16;5012041;28;20042;-70
2021/05/10 01:07:47;;;;;;;4.38;2.90;;;;;;;7.82;67.73;101385.72;5011761;28;20445;-69
2021/05/10 01:10:15;;;;;;;4.40;2.90;;;;;;;8.29;68.06;101487.25;5011617;28;20022;-69
2021/05/10 01:12:41;;;;;;;5.22;3.15;;;;;;;8.43;67.86;101491.53;5011646;28;20033;-69
2021/05/10 01:15:12;;;;;;;5.50;2.80;;;;;;;8.28;68.74;101492.31;5011528;28;20523;-68
2021/05/10 01:17:39;;;;;;;5.88;3.03;;;;;;;8.22;69.48;101488.56;5010975;28;20082;-72
2021/05/10 01:20:07;;;;;;;7.47;3.30;;;;;;;8.12;70.42;101493.88;5012017;28;20037;-70
2021/05/10 01:22:49;;;;;;;4.40;2.78;;;;;;;8.24;70.13;101494.66;5011470;28;20033;-69
2021/05/10 01:25:26;;;;;;;4.53;2.92;;;;;;;8.20;70.24;101484.97;5011869;28;20088;-71
2021/05/10 01:27:53;;;;;;;8.70;3.03;;;;;;;7.93;69.99;101433.56;5011238;28;20113;-72
2021/05/10 01:30:25;;;;;;;8.25;2.83;;;;;;;8.32;68.15;101476.25;5011628;28;20061;-71
2021/05/10 01:32:53;;;;;;;5.00;2.97;;;;;;;8.47;67.07;101487.50;5011471;28;20099;-69
2021/05/10 01:35:22;;;;;;;6.15;2.90;;;;;;;8.34;67.05;101472.09;5011093;28;20459;-71
2021/05/10 01:37:48;;;;;;;4.45;2.80;;;;;;;7.59;67.14;101366.31;5011328;28;20112;-70
2021/05/10 01:40:14;;;;;;;5.75;2.63;;;;;;;8.28;67.03;101476.88;5010952;28;20112;-69
2021/05/10 01:42:39;;;;;;;5.78;3.00;;;;;;;8.22;67.08;101470.53;5008826;28;20548;-68
2021/05/10 01:45:06;;;;;;;5.78;3.08;;;;;;;8.22;67.76;101462.84;5010243;28;20030;-71
2021/05/10 01:47:33;;;;;;;5.57;3.03;;;;;;;8.16;67.70;101462.44;5010096;28;20035;-70
2021/05/10 01:49:58;;;;;;;4.45;2.72;;;;;;;8.17;67.76;101471.03;5011478;28;20037;-69
2021/05/10 01:52:24;;;;;;;5.40;3.03;;;;;;;7.93;68.71;101476.41;5011195;28;20026;-75
2021/05/10 01:54:51;;;;;;;3.65;2.78;;;;;;;7.71;68.83;101472.47;5011565;28;20120;-68
2021/05/10 01:57:18;;;;;;;3.50;2.58;;;;;;;7.80;68.10;101484.13;5010971;28;20042;-72
2021/05/10 01:59:44;;;;;;;4.20;3.00;;;;;;;7.49;67.71;101436.78;5011078;28;20061;-69
2021/05/10 02:02:09;;;;;;;4.30;3.15;;;;;;;7.58;68.07;101486.19;5011480;28;20117;-70
2021/05/10 02:05:07;;;;;;;4.75;2.90;;;;;;;7.49;68.42;101490.72;5011385;28;20026;-69
2021/05/10 02:07:35;;;;;;;6.32;3.28;;;;;;;7.28;68.86;101467.97;5011039;28;20022;-69
2021/05/10 02:10:01;;;;;;;5.70;3.30;;;;;;;7.52;69.13;101497.75;5026158;28;20034;-69
2021/05/10 02:12:26;;;;;;;4.95;3.28;;;;;;;7.29;69.55;101480.03;5011479;28;20169;-69
2021/05/10 02:14:52;;;;;;;7.60;3.45;;;;;;;7.24;70.64;101481.41;5011054;28;20124;-74
2021/05/10 02:17:17;;;;;;;6.78;3.90;;;;;;;7.15;70.41;101460.22;5011212;28;20050;-68
2021/05/10 02:19:43;;;;;;;6.30;3.33;;;;;;;7.26;70.64;101487.53;5010871;28;20400;-75
2021/05/10 02:22:08;;;;;;;5.22;2.85;;;;;;;7.16;70.81;101485.13;5011158;28;20030;-71
2021/05/10 02:24:37;;;;;;;6.57;3.03;;;;;;;7.21;70.70;101481.19;5010581;28;20034;-72
2021/05/10 02:27:04;;;;;;;5.90;3.37;;;;;;;7.47;69.93;101488.84;5025222;28;20049;-69
2021/05/10 02:29:30;;;;;;;6.97;3.65;;;;;;;7.34;69.06;101448.59;5010900;28;20759;-71
2021/05/10 02:31:55;;;;;;;6.30;3.40;;;;;;;7.55;68.86;101464.53;5011156;28;20033;-72
2021/05/10 02:34:21;;;;;;;4.93;2.85;;;;;;;7.74;67.95;101484.63;5011035;28;20026;-71
2021/05/10 02:36:46;;;;;;;5.47;3.08;;;;;;;7.80;67.77;101489.25;5009506;28;20025;-69
2021/05/10 02:39:11;;;;;;;9.02;3.40;;;;;;;7.71;67.77;101503.31;5011115;28;20113;-73
2021/05/10 02:41:37;;;;;;;9.15;3.22;;;;;;;7.21;69.29;101482.88;5010890;28;20472;-68
2021/05/10 02:44:03;;;;;;;8.15;3.42;;;;;;;6.94;69.89;101432.34;5010995;28;20038;-70
2021/05/10 02:46:28;;;;;;;9.82;3.40;;;;;;;7.47;68.93;101499.13;5010849;28;20026;-70
2021/05/10 02:48:53;;;;;;;5.60;3.15;;;;;;;7.36;68.83;101513.81;5006536;28;20037;-70
2021/05/10 02:51:19;;;;;;;5.00;2.70;;;;;;;7.28;69.30;101509.06;5007940;28;20514;-70
2021/05/10 02:56:28;;;;;;;6.70;3.55;;;;;;;7.11;68.04;101463.38;5014462;28;20462;-70
2021/05/10 02:58:54;;;;;;;6.90;3.30;;;;;;;7.35;68.49;101512.94;5013992;28;20025;-69
2021/05/10 03:01:20;;;;;;;5.30;3.03;;;;;;;7.23;69.34;101501.84;5014444;28;20022;-70
2021/05/10 03:03:45;;;;;;;7.10;3.33;;;;;;;7.25;69.60;101515.66;5014525;28;20033;-71
2021/05/10 03:06:11;;;;;;;9.50;3.10;;;;;;;6.61;69.92;101444.66;5014356;28;20518;-70
2021/05/10 03:08:36;;;;;;;8.13;4.28;;;;;;;6.83;69.45;101456.41;5014058;28;20456;-69
2021/05/10 03:11:02;;;;;;;8.00;3.30;;;;;;;7.03;69.87;101501.38;5013726;28;20396;-70
2021/05/10 03:13:27;;;;;;;7.55;3.38;;;;;;;7.11;70.78;101522.44;5014058;28;20403;-69
2021/05/10 03:15:53;;;;;;;6.38;3.13;;;;;;;6.88;71.63;101531.13;5013712;28;20054;-69
2021/05/10 03:18:18;;;;;;;9.05;3.55;;;;;;;6.78;71.25;101488.56;5012460;28;20044;-71
2021/05/10 03:20:44;;;;;;;8.13;3.15;;;;;;;7.02;70.79;101516.69;5013991;28;20065;-69
2021/05/10 03:23:09;;;;;;;6.32;3.45;;;;;;;7.07;70.99;101512.75;5013606;28;20021;-70
2021/05/10 03:25:35;;;;;;;5.30;3.47;;;;;;;7.14;70.55;101520.09;5014093;28;20026;-74
2021/05/10 03:28:00;;;;;;;7.40;3.30;;;;;;;7.10;70.57;101518.09;5013324;28;20115;-71
2021/05/10 03:30:26;;;;;;;6.75;3.47;;;;;;;7.11;70.92;101507.91;5013470;28;20026;-75
2021/05/10 03:32:52;;;;;;;5.05;3.30;;;;;;;7.18;71.44;101516.94;5013282;28;20033;-70
2021/05/10 03:35:19;;;;;;;4.50;3.25;;;;;;;7.09;71.43;101506.94;5013561;28;20112;-69
2021/05/10 03:37:45;;;;;;;6.38;3.25;;;;;;;6.87;71.56;101466.06;5013372;28;20400;-72
2021/05/10 03:40:13;;;;;;;5.03;3.40;;;;;;;7.12;71.96;101517.41;5013386;28;20025;-73
2021/05/10 03:42:39;;;;;;;7.38;3.75;;;;;;;6.76;72.53;101470.47;5013902;28;20112;-69
2021/05/10 03:45:10;;;;;;;8.18;3.58;;;;;;;6.98;72.54;101471.94;5013546;28;20084;-71
2021/05/10 03:47:42;;;;;;;5.20;3.17;;;;;;;7.38;71.85;101512.25;5013071;28;20029;-73
2021/05/10 03:50:08;;;;;;;6.00;3.30;;;;;;;7.60;71.00;101514.53;5013408;28;20061;-71
2021/05/10 03:52:33;;;;;;;4.68;3.17;;;;;;;7.58;70.92;101487.88;5013275;28;20030;-73
2021/05/10 03:54:59;;;;;;;5.22;3.35;;;;;;;7.49;71.00;101465.03;5013241;28;20485;-74
2021/05/10 03:57:24;;;;;;;7.47;3.50;;;;;;;7.69;68.89;101507.47;5013256;28;20034;-71
2021/05/10 03:59:50;;;;;;;5.55;2.90;;;;;;;7.77;69.46;101523.38;5011998;28;20036;-74
2021/05/10 04:02:15;;;;;;;3.90;2.80;;;;;;;7.66;70.43;101511.50;5013190;28;20084;-68
2021/05/10 04:04:46;;;;;;;6.72;2.95;;;;;;;7.61;70.10;101511.19;5012011;28;20468;-70
2021/05/10 04:15:16;;;;;;;6.35;2.90;;;;;;;7.87;70.14;101528.31;5001916;28;20400;-68
2021/05/10 04:17:42;;;;;;;6.72;3.30;;;;;;;7.96;69.82;101532.28;5012550;28;20038;-73
2021/05/10 04:20:08;;;;;;;5.97;3.45;;;;;;;8.01;69.51;101533.47;5012385;28;20029;-71
2021/05/10 04:22:33;;;;;;;4.50;3.00;;;;;;;8.03;69.45;101539.59;5010076;28;20042;-72
2021/05/10 04:24:59;;;;;;;8.68;3.58;;;;;;;8.05;69.57;101526.06;5012154;28;20084;-69
2021/05/10 04:27:26;;;;;;;7.10;3.50;;;;;;;8.09;69.69;101532.28;5012945;28;20087;-70
2021/05/10 04:29:52;;;;;;;8.27;3.17;;;;;;;7.82;69.77;101483.44;5011992;28;20040;-69
2021/05/10 04:32:17;;;;;;;4.25;3.22;;;;;;;8.14;69.59;101528.31;5012613;28;20029;-71
2021/05/10 04:34:43;;;;;;;8.05;3.15;;;;;;;8.23;69.74;101526.31;5010894;28;20117;-71
2021/05/10 04:37:08;;;;;;;8.23;3.45;;;;;;;8.20;69.52;101505.56;5010134;28;20057;-74
2021/05/10 04:39:34;;;;;;;6.30;3.33;;;;;;;8.33;69.67;101504.66;5008535;28;20132;-70
2021/05/10 04:41:59;;;;;;;8.52;4.57;;;;;;;8.45;69.38;101504.53;5011360;28;20026;-70
2021/05/10 04:44:25;;;;;;;7.78;4.00;;;;;;;8.48;69.34;101516.72;5011881;28;20018;-71
2021/05/10 04:46:50;;;;;;;7.50;3.22;;;;;;;8.40;70.05;101513.66;5011376;28;20507;-69
2021/05/10 04:49:15;;;;;;;8.70;3.22;;;;;;;8.49;69.93;101516.81;5011638;28;20499;-73
2021/05/10 04:51:41;;;;;;;8.18;3.75;;;;;;;8.40;70.20;101475.06;5012182;28;20033;-72
2021/05/10 04:54:06;;;;;;;9.02;4.65;;;;;;;8.64;70.33;101511.72;5011615;28;20037;-72
2021/05/10 04:56:32;;;;;;;5.45;3.13;;;;;;;8.61;71.23;101521.84;5011258;28;20022;-71
2021/05/10 04:58:57;;;;;;;6.50;3.75;;;;;;;8.39;70.67;101466.44;5011765;28;20069;-70
2021/05/10 05:01:23;;;;;;;10.15;3.35;;;;;;;8.79;70.31;101516.94;5010302;28;20113;-71
2021/05/10 05:03:49;;;;;;;7.63;3.50;;;;;;;8.68;70.72;101513.69;5011309;28;20044;-72
2021/05/10 05:06:14;;;;;;;7.95;3.13;;;;;;;8.69;70.55;101514.59;5011280;28;20026;-69
2021/05/10 05:08:40;;;;;;;8.02;3.10;;;;;;;8.76;71.43;101524.47;5010750;28;20030;-71
2021/05/10 05:11:05;;;;;;;9.27;3.22;;;;;;;8.92;70.43;101522.81;5010725;28;20041;-71
2021/05/10 05:13:31;;;;;;;5.05;3.33;;;;;;;8.97;71.58;101499.16;5011157;28;20081;-71
2021/05/10 05:15:57;;;;;;;5.50;3.45;;;;;;;9.06;69.95;101484.22;5010797;28;20050;-72
2021/05/10 05:18:23;;;;;;;7.47;3.13;;;;;;;9.41;69.99;101514.53;5009376;28;20409;-71
2021/05/10 05:20:49;;;;;;;4.88;2.72;;;;;;;9.42;69.76;101521.47;5011204;28;20083;-70
2021/05/10 05:23:26;;;;;;;4.50;3.05;;;;;;;9.45;71.01;101527.72;5010972;28;20495;-74
2021/05/10 05:25:59;;;;;;;7.40;2.83;;;;;;;9.17;70.46;101474.56;5011359;28;20029;-69
2021/05/10 05:28:27;;;;;;;4.68;2.65;;;;;;;9.54;70.10;101528.25;5010581;28;20497;-72
2021/05/10 05:30:57;;;;;;;6.07;2.67;;;;;;;9.62;70.53;101522.63;5011200;28;20104;-69
2021/05/10 05:33:24;;;;;;;2.75;2.00;;;;;;;9.86;68.54;101531.78;5010916;28;20026;-72
2021/05/10 05:35:49;;;;;;;3.95;2.47;;;;;;;9.60;67.06;101467.53;5008485;28;20461;-71
2021/05/10 05:38:15;;;;;;;3.15;2.10;;;;;;;9.86;66.30;101510.28;5004498;28;20037;-69
2021/05/10 05:40:42;;;;;;;8.57;2.70;;;;;;;9.93;68.31;101534.72;5007958;28;20460;-72
2021/05/10 05:43:09;;;;;;;5.50;2.45;;;;;;;10.04;67.61;101534.53;5007301;28;20026;-72
2021/05/10 05:45:36;;;;;;;8.20;2.90;;;;;;;10.11;66.86;101530.59;5010247;28;20469;-69
2021/05/10 05:48:08;;;;;;;6.60;2.88;;;;;;;10.16;68.17;101526.56;5008715;28;20022;-68
2021/05/10 05:50:34;;;;;;;5.35;2.40;;;;;;;10.51;66.79;101529.34;5010214;28;20065;-71
2021/05/10 05:53:01;;;;;;;5.63;2.25;;;;;;;10.73;67.30;101536.56;5010048;28;20032;-70
2021/05/10 05:55:28;;;;;;;6.90;2.17;;;;;;;10.92;66.10;101524.63;5008729;28;20503;-70
2021/05/10 05:57:54;;;;;;;3.75;2.25;;;;;;;10.97;64.07;101520.59;5010616;28;20034;-69
2021/05/10 06:00:20;;;;;;;9.38;2.63;;;;;;;10.90;66.24;101533.97;5007935;28;20041;-69
2021/05/10 06:02:46;;;;;;;5.75;2.20;;;;;;;11.09;62.79;101522.91;5011562;28;20049;-69
2021/05/10 06:05:13;;;;;;;3.88;2.08;;;;;;;11.19;62.80;101529.44;5010051;28;20030;-69
2021/05/10 06:07:42;;;;;;;4.35;2.13;;;;;;;11.25;64.02;101524.59;5011401;28;20030;-69
2021/05/10 06:10:10;;;;;;;5.43;2.15;;;;;;;11.44;62.16;101534.16;5011547;28;20032;-71
2021/05/10 06:12:36;;;;;;;10.90;2.47;;;;;;;11.62;61.75;101519.56;5011631;28;20037;-71
2021/05/10 06:15:02;;;;;;;5.20;2.00;;;;;;;11.36;59.08;101509.63;5011659;28;20026;-72
2021/05/10 06:17:27;;;;;;;5.53;1.90;;;;;;;11.34;60.34;101509.56;5004484;28;20069;-74
2021/05/10 06:19:53;;;;;;;2.97;1.70;;;;;;;11.74;60.10;101518.38;5006197;28;20455;-71
2021/05/10 06:22:19;;;;;;;4.05;1.70;;;;;;;11.86;58.08;101479.28;5008740;28;20029;-74
2021/05/10 06:24:45;;;;;;;5.68;1.70;;;;;;;12.03;55.15;101506.03;5010001;28;20018;-72
2021/05/10 06:27:10;;;;;;;2.92;1.63;;;;;;;12.10;57.08;101490.84;5007422;28;20022;-71
2021/05/10 06:29:36;;;;;;;5.72;1.80;;;;;;;12.23;56.11;101514.72;5012857;28;20480;-74
2021/05/10 06:32:02;;;;;;;2.45;1.60;;;;;;;12.17;55.63;101493.72;5014521;28;20026;-73
2021/05/10 06:34:27;;;;;;;4.00;1.83;;;;;;;12.23;55.78;101500.06;5010488;28;20030;-71
2021/05/10 06:36:53;;;;;;;3.13;1.38;;;;;;;12.04;56.35;101484.50;5013712;28;20033;-73
2021/05/10 06:39:18;;;;;;;2.13;1.50;;;;;;;12.25;54.76;101501.03;5006270;28;20033;-73
2021/05/10 06:41:44;;;;;;;3.08;1.83;;;;;;;12.42;55.36;101499.25;5014458;28;20112;-73
2021/05/10 06:44:10;;;;;;;2.28;1.58;;;;;;;12.55;56.33;101498.09;5014432;28;20056;-73
2021/05/10 06:46:36;;;;;;;5.68;1.52;;;;;;;12.82;54.13;101497.53;5014115;28;20021;-72
2021/05/10 06:49:02;;;;;;;3.05;1.60;;;;;;;12.98;52.82;101493.03;5012169;28;20041;-73
2021/05/10 06:51:28;;;;;;;3.58;1.60;;;;;;;13.17;52.07;101499.91;5014217;28;20029;-73
2021/05/10 06:53:53;;;;;;;4.28;1.75;;;;;;;13.22;51.78;101491.50;5012178;28;20451;-73
2021/05/10 06:56:19;;;;;;;4.72;1.70;;;;;;;13.26;52.92;101448.44;5014030;28;20388;-73
2021/05/10 06:58:44;;;;;;;6.30;1.77;;;;;;;13.38;53.36;101449.00;5014075;28;20037;-72
2021/05/10 07:01:09;;;;;;;5.03;2.05;;;;;;;13.59;51.75;101461.03;5014357;28;20446;-72
2021/05/10 07:03:35;;;;;;;2.13;1.70;;;;;;;13.57;52.38;101444.53;5013920;28;20036;-72
2021/05/10 07:06:01;;;;;;;2.63;1.70;;;;;;;13.64;51.43;101475.09;5014221;28;20034;-73
2021/05/10 07:08:26;;;;;;;8.13;1.90;;;;;;;13.86;50.30;101475.97;5014000;28;20037;-73
2021/05/10 07:10:52;;;;;;;3.08;1.73;;;;;;;13.96;50.13;101470.31;5014430;28;20440;-72
2021/05/10 07:13:20;;;;;;;10.43;1.90;;;;;;;14.23;48.47;101482.56;5014105;28;20136;-72
2021/05/10 07:15:46;;;;;;;2.35;1.63;;;;;;;14.17;48.29;101479.75;5013450;28;20041;-73
2021/05/10 07:18:12;;;;;;;3.35;1.55;;;;;;;14.27;47.13;101478.38;5013689;28;20038;-73
2021/05/10 07:20:39;;;;;;;12.68;2.03;;;;;;;14.33;47.26;101453.53;5014308;28;20092;-70
2021/05/10 07:23:07;;;;;;;7.50;2.10;;;;;;;14.56;48.13;101482.06;5011730;28;20544;-73
2021/05/10 07:25:42;;;;;;;3.95;1.60;;;;;;;14.49;47.75;101467.09;5013996;28;20073;-70
2021/05/10 07:28:09;;;;;;;9.18;1.90;;;;;;;14.46;45.35;101475.66;5014091;28;20546;-70
2021/05/10 07:30:36;;;;;;;6.32;1.90;;;;;;;14.39;46.83;101479.75;5013918;28;20080;-69
2021/05/10 07:33:02;;;;;;;2.08;1.55;;;;;;;14.52;43.71;101457.69;5013585;28;20393;-73
2021/05/10 07:35:27;;;;;;;6.60;2.03;;;;;;;14.78;44.60;101472.47;5013988;28;20034;-70
2021/05/10 07:37:53;;;;;;;10.90;2.50;;;;;;;14.96;44.29;101472.25;5014157;28;20022;-72
2021/05/10 07:40:22;;;;;;;4.82;1.75;;;;;;;14.91;43.37;101455.63;5013162;28;20156;-70
2021/05/10 07:42:47;;;;;;;7.18;1.80;;;;;;;14.87;45.81;101459.81;5013253;28;20030;-71
2021/05/10 07:45:13;;;;;;;9.73;2.20;;;;;;;14.97;46.69;101472.31;5013549;28;20045;-73
2021/05/10 07:47:38;;;;;;;13.77;2.13;;;;;;;15.10;39.58;101463.22;5014134;28;20096;-71
2021/05/10 07:50:05;;;;;;;7.95;2.08;;;;;;;15.20;42.00;101443.59;5013666;28;20458;-72
2021/05/10 07:52:31;;;;;;;7.90;1.92;;;;;;;15.27;39.93;101426.50;5013467;28;20056;-75
2021/05/10 07:54:56;;;;;;;7.07;2.10;;;;;;;15.59;39.67;101469.19;5013586;28;20065;-72
2021/05/10 07:57:23;;;;;;;5.38;2.17;;;;;;;15.53;37.82;101435.16;5012004;28;20018;-72
2021/05/10 07:59:50;;;;;;;6.22;2.08;;;;;;;15.68;38.65;101450.38;5013504;28;20072;-70
2021/05/10 08:02:18;;;;;;;9.38;1.90;;;;;;;15.70;41.55;101456.50;5013318;28;20160;-73
2021/05/10 08:04:43;;;;;;;12.77;2.80;;;;;;;15.77;37.83;101449.78;5013480;28;20058;-74
2021/05/10 08:07:09;;;;;;;13.07;2.65;;;;;;;15.91;37.84;101448.50;5012929;28;20064;-71
2021/05/10 08:09:34;;;;;;;18.10;3.60;;;;;;;16.01;41.21;101442.75;5013437;28;20033;-71
2021/05/10 08:12:00;;;;;;;12.82;3.38;;;;;;;15.80;37.63;101432.53;5011764;28;20476;-71
2021/05/10 08:14:26;;;;;;;19.55;4.13;;;;;;;15.61;36.95;101410.22;5013194;28;20033;-74
2021/05/10 08:16:52;;;;;;;12.95;3.40;;;;;;;15.65;37.29;101393.00;5012443;28;20121;-73
2021/05/10 08:19:18;;;;;;;9.60;1.88;;;;;;;16.08;36.56;101432.53;5012645;28;20095;-70
2021/05/10 08:21:43;;;;;;;5.45;1.50;;;;;;;15.95;36.73;101428.66;5013279;28;20472;-71
2021/05/10 08:24:12;;;;;;;8.35;2.08;;;;;;;16.03;38.35;101428.91;5012764;28;20084;-72
2021/05/10 08:26:37;;;;;;;7.68;1.75;;;;;;;16.21;37.17;101419.00;5012756;28;20061;-72
2021/05/10 08:29:03;;;;;;;7.32;2.03;;;;;;;16.38;37.22;101421.22;5013085;28;20062;-72
2021/05/10 08:31:28;;;;;;;7.22;2.15;;;;;;;16.31;38.06;101421.06;5012766;28;20064;-70
2021/05/10 08:33:54;;;;;;;14.20;2.45;;;;;;;16.50;35.88;101419.84;5013075;28;20033;-76
2021/05/10 08:36:19;;;;;;;10.10;2.50;;;;;;;16.52;35.37;101406.84;5013054;28;20048;-77
2021/05/10 08:38:46;;;;;;;10.98;3.33;;;;;;;16.70;35.38;101402.97;5029694;28;20168;-71
2021/05/10 08:41:11;;;;;;;7.32;1.90;;;;;;;16.84;38.45;101398.13;5029400;28;20045;-74
2021/05/10 08:43:37;;;;;;;5.15;1.85;;;;;;;17.10;38.07;101411.88;5026690;28;20037;-74
2021/05/10 08:46:05;;;;;;;9.18;2.20;;;;;;;17.29;36.30;101413.22;5025211;28;20479;-72
2021/05/10 08:48:31;;;;;;;5.22;1.80;;;;;;;16.95;35.31;101368.03;5018976;28;20045;-72
2021/05/10 08:50:56;;;;;;;9.30;2.10;;;;;;;17.18;37.00;101399.88;5027357;28;20037;-73
2021/05/10 08:53:41;;;;;;;3.03;1.30;;;;;;;17.14;35.85;101385.88;5025676;28;20174;-72
2021/05/10 08:56:08;;;;;;;6.63;1.48;;;;;;;17.17;34.07;101394.63;5027495;28;20021;-72
2021/05/10 08:58:37;;;;;;;3.10;1.30;;;;;;;17.19;33.67;101391.22;5027000;28;20554;-72
2021/05/10 09:01:04;;;;;;;10.40;2.42;;;;;;;17.51;37.00;101400.66;5027486;28;20025;-70
2021/05/10 09:03:44;;;;;;;19.30;4.57;;;;;;;17.74;35.17;101394.22;5025068;28;20136;-71
2021/05/10 09:06:14;;;;;;;6.35;1.50;;;;;;;17.76;33.58;101386.44;5026275;28;20018;-70
2021/05/10 09:09:03;;;;;;;3.35;1.20;;;;;;;17.67;35.40;101378.41;5026042;28;20053;-72
2021/05/10 09:11:29;;;;;;;4.75;1.38;;;;;;;17.63;34.57;101386.19;4949333;28;20066;-71
2021/05/10 09:13:57;;;;;;;3.17;1.60;;;;;;;17.74;34.50;101380.31;4949274;28;20090;-69
2021/05/10 09:16:23;;;;;;;3.03;1.20;;;;;;;17.93;35.57;101379.88;4949421;28;20627;-72
2021/05/10 09:18:55;;;;;;;3.85;1.50;;;;;;;18.04;32.62;101371.41;4932552;28;20518;-71
2021/05/10 09:21:23;;;;;;;5.35;1.50;;;;;;;17.77;35.11;101326.41;4947738;28;20059;-76
2021/05/10 09:23:50;;;;;;;5.28;1.67;;;;;;;18.20;32.97;101367.38;4949185;28;20129;-73
2021/05/10 09:26:34;;;;;;;4.00;1.30;;;;;;;18.18;33.96;101322.91;4949729;28;20113;-72
2021/05/10 09:29:01;;;;;;;4.78;1.40;;;;;;;18.43;31.25;101365.22;4949671;28;20050;-74
2021/05/10 09:31:27;;;;;;;2.65;1.30;;;;;;;18.49;29.93;101354.88;4934070;28;20038;-74
2021/05/10 09:33:53;;;;;;;2.60;1.30;;;;;;;18.52;33.05;101347.06;4950389;28;20457;-75
2021/05/10 09:36:39;;;;;;;6.57;1.55;;;;;;;18.84;30.58;101344.13;4928408;29;20047;-77
2021/05/10 09:39:26;;;;;;;3.97;1.50;;;;;;;18.97;33.13;101332.16;4922745;29;20060;-70
2021/05/10 09:41:58;;;;;;;7.35;1.80;;;;;;;19.16;31.94;101354.25;4923679;29;20059;-70
2021/05/10 09:44:39;;;;;;;5.68;1.90;;;;;;;19.14;30.21;101337.69;4924422;29;20479;-71
2021/05/10 09:47:05;;;;;;;5.43;1.75;;;;;;;19.03;30.04;101315.69;4917560;29;20040;-70
2021/05/10 09:49:44;;;;;;;4.65;1.40;;;;;;;19.18;29.78;101323.78;4984672;28;20543;-73
2021/05/10 09:52:21;;;;;;;3.40;1.35;;;;;;;19.50;29.53;101325.97;5008396;28;20048;-72
2021/05/10 09:54:57;;;;;;;7.18;1.65;;;;;;;19.62;29.36;101327.00;5014569;28;20034;-74
2021/05/10 09:57:24;;;;;;;1.83;1.15;;;;;;;19.15;27.81;101315.88;5009150;28;20038;-74
2021/05/10 10:00:27;;;;;;;4.68;1.40;;;;;;;19.28;31.22;101323.88;5009376;28;20049;-75
2021/05/10 10:02:55;;;;;;;6.82;1.52;;;;;;;18.54;29.72;101201.53;4964217;28;20039;-71
2021/05/10 10:05:20;;;;;;;10.60;2.03;;;;;;;19.18;30.66;101315.91;4951664;28;20042;-74
2021/05/10 10:07:46;;;;;;;6.72;1.55;;;;;;;19.53;30.39;101317.28;4978465;28;20042;-72
2021/05/10 10:10:13;;;;;;;2.63;1.52;;;;;;;19.71;28.99;101312.28;4979635;28;20034;-77
2021/05/10 10:12:39;;;;;;;3.90;1.33;;;;;;;20.05;29.10;101311.84;4975610;28;20097;-71
2021/05/10 10:15:05;;;;;;;8.63;1.80;;;;;;;20.12;29.21;101311.03;4968805;28;20047;-78
2021/05/10 10:17:31;;;;;;;5.57;1.48;;;;;;;20.13;29.25;101264.75;4971292;28;20141;-73
2021/05/10 10:19:58;;;;;;;2.75;1.25;;;;;;;20.13;28.36;101242.03;4971097;28;20510;-73
2021/05/10 10:22:24;;;;;;;4.18;1.30;;;;;;;20.75;29.03;101288.91;4972955;28;20130;-71
2021/05/10 10:24:50;;;;;;;18.98;2.67;;;;;;;20.87;27.04;101282.91;4968257;28;20113;-75
2021/05/10 10:27:17;;;;;;;5.40;1.70;;;;;;;21.00;26.83;101276.88;4963686;28;20477;-72
2021/05/10 10:29:46;;;;;;;3.67;1.45;;;;;;;21.23;26.26;101287.50;4969801;28;20109;-72
2021/05/10 10:32:17;;;;;;;3.75;1.20;;;;;;;21.16;28.98;101270.84;4967758;28;20126;-76
2021/05/10 10:34:47;;;;;;;2.28;1.23;;;;;;;21.15;28.81;101263.84;5007270;28;20088;-75
2021/05/10 10:37:14;;;;;;;;;;;;;;;21.05;27.77;101272.53;5020872;28;20018;-74
2021/05/10 10:39:49;;;;;;;4.30;1.30;;;;;;;20.78;26.52;101216.34;5008473;28;19948;-75
2021/05/10 10:42:25;;;;;;;4.88;1.40;;;;;;;20.81;29.28;101220.75;5007514;28;20034;-74
2021/05/10 10:44:55;;;;;;;3.40;1.38;;;;;;;21.26;29.72;101258.66;5009837;28;20025;-72
2021/05/10 10:47:44;;;;;;;3.45;1.33;;;;;;;21.62;27.27;101264.09;5007286;28;20052;-70
2021/05/10 10:50:18;;;;;;;6.18;1.30;;;;;;;21.85;25.81;101250.16;5009158;28;20033;-73
2021/05/10 10:52:56;;;;;;;2.35;1.10;;;;;;;22.09;24.82;101249.34;5009552;28;20137;-73
2021/05/10 10:55:30;;;;;;;6.13;1.20;;;;;;;21.70;28.43;101259.75;5009585;28;20033;-74
2021/05/10 10:58:14;;;;;;;1.08;0.90;;;;;;;21.87;26.65;101245.78;5009413;28;20584;-77
2021/05/10 11:01:07;;;;;;;4.32;1.92;;;;;;;21.64;27.20;101242.19;5009799;28;20046;-71
2021/05/10 11:03:35;;;;;;;7.20;1.38;;;;;;;21.86;26.00;101241.38;5009576;28;20037;-74
2021/05/10 11:06:01;;;;;;;10.25;2.55;;;;;;;21.72;26.67;101218.59;5009218;28;20080;-75
2021/05/10 11:08:39;;;;;;;5.70;1.77;;;;;;;22.09;25.88;101230.94;5023151;28;20034;-77
2021/05/10 11:11:05;;;;;;;5.20;1.40;;;;;;;21.59;26.02;101216.78;5009868;28;20022;-70
2021/05/10 11:13:39;;;;;;;5.97;2.10;;;;;;;21.67;26.66;101215.09;5007450;28;20132;-74
2021/05/10 11:16:10;;;;;;;4.18;1.52;;;;;;;21.57;27.72;101187.00;5002240;28;20054;-74
2021/05/10 11:18:51;;;;;;;16.05;4.03;;;;;;;22.05;30.82;101195.84;5007329;28;20077;-73
2021/05/10 11:21:23;;;;;;;13.00;2.40;;;;;;;22.30;28.62;101203.75;5011712;28;20034;-68
2021/05/10 11:24:11;;;;;;;11.30;1.98;;;;;;;22.65;27.62;101202.91;5011047;28;20048;-73
2021/05/10 11:26:51;;;;;;;2.92;1.38;;;;;;;22.74;29.72;101191.47;4952210;28;20031;-73
2021/05/10 11:29:26;;;;;;;4.47;1.38;;;;;;;22.97;26.08;101191.44;4970266;28;20078;-76
2021/05/10 11:31:52;;;;;;;8.45;1.60;;;;;;;22.93;26.82;101182.66;4969441;28;20390;-73
2021/05/10 11:34:28;;;;;;;14.05;1.83;;;;;;;22.83;26.02;101191.47;4965857;28;20847;-72
2021/05/10 11:36:55;;;;;;;5.72;1.40;;;;;;;22.99;25.29;101178.25;4970197;28;20039;-73
2021/05/10 11:39:27;;;;;;;14.88;2.22;;;;;;;22.61;28.10;101145.88;4970319;28;20460;-75
2021/05/10 11:42:05;;;;;;;2.78;1.40;;;;;;;22.76;26.35;101116.88;4968596;28;20425;-76
2021/05/10 11:44:38;;;;;;;5.13;1.83;;;;;;;22.89;27.50;101158.97;4968729;28;20058;-73